Latest Weather Observations for Swan Hill

IDN60801

Issued at 11:32 am EST Thursday 30 July 2015 (issued every 30 minutes, with the page automatically refreshed every 10 minutes)

About weather observations | Map of weather stations | Latest weather observations for NSW | Other Formats
Station Details ID: 077094 Name: SWAN HILL AERODROME Lat: -35.38 Lon: 143.54 Height: 71.0 m
Data from the previous 72 hours. | See also: Recent months at Swan Hill
Date/Time
EST
Temp
°C
App
Temp
°C
Dew
Point
Rel
Hum
%
Delta-T
°C
Wind Press
QNH
hPa
Press
MSL
hPa
Rain
since 9 am
mm
Dir
 
Spd
km/h
Gust
km/h
Spd
kts
Gust
kts
30/11:30am 10.2 3.8 3.3 62 3.0 N 26 33 14 18 1022.4 1022.5 0.0
30/11:00am 9.4 3.8 3.4 66 2.6 N 22 30 12 16 1023.3 1023.4 0.0
30/10:30am 8.7 3.1 3.7 71 2.2 N 22 30 12 16 1023.2 1023.3 0.0
30/10:00am 7.7 2.4 3.2 73 1.9 N 20 30 11 16 1023.7 1023.8 0.0
30/09:30am 7.3 2.0 3.0 74 1.8 N 20 28 11 15 1023.5 1023.6 0.0
30/09:00am 6.5 1.7 2.6 76 1.6 N 17 22 9 12 1024.0 1024.1 0.0
30/08:30am 5.8 1.0 2.4 79 1.4 N 17 20 9 11 1023.9 1024.0 0.0
30/08:00am 5.4 0.5 2.1 79 1.3 N 17 22 9 12 1023.5 1023.6 0.0
30/07:30am 4.7 0.2 1.9 82 1.1 NNE 15 19 8 10 1023.7 1023.8 0.0
30/07:00am 4.3 0.1 1.5 82 1.1 N 13 17 7 9 1024.0 1024.1 0.0
30/06:30am 4.5 0.3 1.7 82 1.1 NNE 13 17 7 9 1023.9 1024.0 0.0
30/06:00am 4.6 0.4 1.8 82 1.1 NNE 13 15 7 8 1024.1 1024.2 0.0
30/05:30am 4.4 0.2 1.9 84 1.0 N 13 17 7 9 1024.1 1024.2 0.0
30/05:00am 4.7 0.6 2.1 83 1.0 N 13 17 7 9 1024.5 1024.6 0.0
30/04:30am 4.9 0.8 2.1 82 1.1 NNE 13 17 7 9 1024.6 1024.7 0.0
30/04:00am 5.1 1.0 2.1 81 1.2 N 13 15 7 8 1024.9 1025.0 0.0
30/03:30am 5.4 1.3 2.2 80 1.3 NNE 13 15 7 8 1025.1 1025.2 0.0
30/03:00am 5.2 1.1 2.0 80 1.3 NNE 13 17 7 9 1025.4 1025.5 0.0
30/02:30am 5.5 1.8 2.2 79 1.3 N 11 13 6 7 1025.8 1025.9 0.0
30/02:00am 5.3 1.2 2.0 79 1.3 N 13 15 7 8 1026.3 1026.5 0.0
30/01:30am 6.9 3.2 2.6 74 1.8 N 11 17 6 9 1026.4 1026.6 0.0
30/01:00am 7.6 3.2 2.9 72 2.0 NNE 15 19 8 10 1026.6 1026.8 0.0
30/12:30am 7.0 3.4 3.1 76 1.6 NNE 11 13 6 7 1027.1 1027.3 0.0
30/12:00am 7.5 3.5 3.0 73 1.9 NNE 13 17 7 9 1027.5 1027.7 0.0
 
Date/Time
EST
Temp
°C
App
Temp
°C
Dew
Point
Rel
Hum
%
Delta-T
°C
Wind Press
QNH
hPa
Press
MSL
hPa
Rain
since 9 am
mm
Dir
 
Spd
km/h
Gust
km/h
Spd
kts
Gust
kts
29/11:30pm 7.0 3.8 3.1 76 1.6 NNE 9 11 5 6 1028.0 1028.2 0.0
29/11:00pm 7.6 4.8 3.1 73 1.9 NNE 7 9 4 5 1028.3 1028.5 0.0
29/10:30pm 7.8 3.5 3.1 72 2.0 NNE 15 17 8 9 1028.4 1028.6 0.0
29/10:00pm 7.0 3.0 3.1 76 1.6 NE 13 13 7 7 1028.5 1028.7 0.0
29/09:30pm 7.6 4.0 3.1 73 1.9 NE 11 13 6 7 1028.6 1028.8 0.0
29/09:00pm 7.6 4.1 3.3 74 1.8 NE 11 13 6 7 1028.5 1028.7 0.0
29/08:30pm 8.1 4.2 3.4 72 2.0 NE 13 15 7 8 1028.5 1028.7 0.0
29/08:00pm 8.0 4.4 3.1 71 2.1 NE 11 15 6 8 1028.9 1029.1 0.0
29/07:30pm 8.3 4.7 3.0 69 2.2 NE 11 13 6 7 1029.1 1029.3 0.0
29/07:00pm 9.5 6.3 3.3 65 2.7 N 9 13 5 7 1029.3 1029.5 0.0
29/06:30pm 9.0 5.5 3.4 68 2.4 NNE 11 13 6 7 1028.8 1029.0 0.0
29/06:00pm 9.3 6.1 3.3 66 2.6 NNE 9 11 5 6 1028.7 1028.9 0.0
29/05:30pm 9.8 6.2 3.1 63 2.9 NE 11 15 6 8 1028.5 1028.7 0.0
29/05:00pm 10.6 7.0 2.9 59 3.3 NNE 11 17 6 9 1028.8 1029.0 0.0
29/04:30pm 11.3 7.2 2.3 54 3.9 N 13 17 7 9 1029.1 1029.3 0.0
29/04:00pm 11.4 7.4 2.9 56 3.7 N 13 19 7 10 1029.4 1029.6 0.0
29/03:30pm 11.6 7.1 2.4 53 4.0 NNE 15 17 8 9 1029.4 1029.6 0.0
29/03:00pm 11.5 6.9 1.7 51 4.1 N 15 19 8 10 1029.6 1029.8 0.0
29/02:30pm 11.7 7.2 2.2 52 4.1 N 15 20 8 11 1029.8 1030.0 0.0
29/02:00pm 11.7 7.1 1.6 50 4.3 N 15 20 8 11 1030.6 1030.8 0.0
29/01:30pm 11.8 6.5 1.7 50 4.3 NNW 19 22 10 12 1031.4 1031.6 0.0
29/01:00pm 11.7 6.8 1.9 51 4.2 N 17 24 9 13 1031.7 1031.9 0.0
29/12:30pm 11.7 6.9 2.5 53 4.0 N 17 22 9 12 1032.4 1032.6 0.0
29/12:00pm 11.9 7.1 2.4 52 4.1 N 17 20 9 11 1033.0 1033.1 0.0
29/11:30am 11.3 7.2 4.1 61 3.2 N 15 19 8 10 1033.7 1033.8 0.0
29/11:00am 10.5 6.8 4.6 67 2.6 N 13 17 7 9 1033.9 1034.0 0.0
29/10:30am 9.7 6.1 5.1 73 2.1 N 13 17 7 9 1033.9 1034.0 0.0
29/10:00am 9.1 5.5 5.1 76 1.8 NNE 13 17 7 9 1033.6 1033.7 0.0
29/09:30am 8.0 5.3 5.5 84 1.1 WNW 9 9 5 5 1034.7 1034.8 0.0
29/09:00am 6.8 4.7 5.7 93 0.5 WSW 6 9 3 5 1034.4 1034.5 0.0
29/08:30am 6.0 3.8 5.1 94 0.4 WSW 6 9 3 5 1034.4 1034.5 0.0
29/08:00am 5.2 3.9 4.3 94 0.4 CALM 0 0 0 0 1034.4 1034.5 0.0
29/07:30am 4.8 2.1 3.9 94 0.4 WSW 7 9 4 5 1034.0 1034.1 0.0
29/07:00am 4.4 1.9 3.5 94 0.4 WSW 6 7 3 4 1033.5 1033.6 0.0
29/06:30am 4.1 1.3 3.2 94 0.4 WSW 7 9 4 5 1033.3 1033.4 0.0
29/06:00am 3.7 0.5 2.8 94 0.4 WSW 9 9 5 5 1033.0 1033.1 0.0
29/05:30am 3.2 -0.5 2.3 94 0.4 WSW 11 11 6 6 1033.0 1033.1 0.0
29/05:00am 2.2 -0.9 1.3 94 0.3 WSW 7 9 4 5 1033.2 1033.3 0.0
29/04:30am 1.6 -0.3 0.6 93 0.4 CALM 0 0 0 0 1033.4 1033.5 0.0
29/04:00am 1.6 -0.3 0.6 93 0.4 CALM 0 0 0 0 1033.4 1033.5 0.0
29/03:30am 2.0 0.2 1.0 93 0.4 CALM 0 0 0 0 1033.4 1033.5 0.0
29/03:00am 1.5 -0.4 0.5 93 0.4 CALM 0 6 0 3 1033.6 1033.7 0.0
29/02:30am 3.2 0.8 2.3 94 0.4 WSW 4 6 2 3 1033.8 1033.9 0.0
29/02:00am 3.4 0.5 2.4 93 0.4 WSW 7 9 4 5 1033.9 1034.0 0.0
29/01:30am 3.3 1.3 2.3 93 0.4 WSW 2 7 1 4 1034.1 1034.2 0.0
29/01:00am 3.7 1.8 2.7 93 0.4 WSW 2 7 1 4 1034.2 1034.3 0.0
29/12:30am 4.0 1.1 2.7 91 0.5 WSW 7 9 4 5 1034.2 1034.3 0.0
29/12:00am 4.2 1.5 2.9 91 0.5 WSW 6 7 3 4 1034.5 1034.6 0.0
 
Date/Time
EST
Temp
°C
App
Temp
°C
Dew
Point
Rel
Hum
%
Delta-T
°C
Wind Press
QNH
hPa
Press
MSL
hPa
Rain
since 9 am
mm
Dir
 
Spd
km/h
Gust
km/h
Spd
kts
Gust
kts
28/11:30pm 5.1 2.4 3.8 91 0.5 WSW 7 9 4 5 1034.6 1034.7 0.0
28/11:00pm 5.6 4.3 3.9 89 0.7 CALM 0 2 0 1 1034.9 1035.0 0.0
28/10:30pm 6.0 4.3 4.2 88 0.8 WSW 2 7 1 4 1034.9 1035.0 0.0
28/10:00pm 6.1 3.1 4.3 88 0.8 WSW 9 13 5 7 1035.2 1035.3 0.0
28/09:30pm 7.0 5.8 4.7 85 1.0 CALM 0 0 0 0 1035.4 1035.5 0.0
28/09:00pm 6.8 5.6 4.6 86 0.9 CALM 0 0 0 0 1035.1 1035.2 0.0
28/08:30pm 7.1 5.9 4.4 83 1.2 CALM 0 0 0 0 1035.4 1035.5 0.0
28/08:00pm 7.5 6.3 4.6 82 1.3 CALM 0 0 0 0 1035.4 1035.5 0.0
28/07:30pm 7.9 6.6 4.3 78 1.6 CALM 0 0 0 0 1035.3 1035.4 0.0
28/07:00pm 8.3 5.9 4.5 77 1.7 WSW 6 7 3 4 1035.2 1035.3 0.0
28/06:30pm 8.9 6.5 4.5 74 2.0 WSW 6 7 3 4 1034.9 1035.0 0.0
28/06:00pm 10.0 7.7 4.8 70 2.3 WSW 6 7 3 4 1034.7 1034.8 0.0
28/05:30pm 11.3 9.1 5.2 66 2.8 WSW 6 7 3 4 1034.5 1034.6 0.0
28/05:00pm 12.1 9.5 5.9 66 2.9 WSW 9 13 5 7 1034.4 1034.5 0.0
28/04:30pm 12.6 9.4 5.1 60 3.5 W 11 13 6 7 1034.4 1034.5 0.0
28/04:00pm 12.1 9.0 5.5 64 3.0 SW 11 15 6 8 1034.8 1034.9 0.0
28/03:30pm 12.7 9.0 4.4 57 3.8 WSW 13 22 7 12 1034.8 1034.9 0.0
28/03:00pm 11.9 8.3 5.1 63 3.1 WSW 13 17 7 9 1034.8 1034.9 0.0
28/02:30pm 11.8 7.9 5.2 64 3.0 SW 15 20 8 11 1034.9 1035.0 0.0
28/02:00pm 12.6 9.7 6.6 67 2.8 SW 11 17 6 9 1035.0 1035.1 0.0
28/01:30pm 12.2 8.9 6.3 67 2.8 WSW 13 19 7 10 1035.5 1035.6 0.0
28/01:00pm 11.1 7.7 6.0 71 2.4 WSW 13 19 7 10 1035.7 1035.8 0.0
28/12:30pm 10.6 7.5 7.1 79 1.7 W 13 19 7 10 1036.2 1036.3 0.0
28/12:25pm 10.4 7.2 6.7 78 1.7 WSW 13 19 7 10 1036.3 1036.4 0.0
28/12:00pm 9.4 6.1 6.5 82 1.3 W 13 19 7 10 1036.9 1037.0 0.0
28/11:30am 7.9 5.1 6.8 93 0.5 WSW 11 15 6 8 1037.4 1037.5 0.0
28/11:10am 7.4 4.5 6.7 95 0.3 SW 11 15 6 8 1037.6 1037.7 0.0
28/11:00am 7.0 4.4 6.3 95 0.3 WSW 9 15 5 8 1037.8 1038.0 0.0
28/10:30am 6.2 2.7 5.5 95 0.3 WSW 13 17 7 9 1037.9 1038.1 0.0
28/10:00am 5.9 2.7 5.2 95 0.3 WSW 11 13 6 7 1037.8 1038.0 0.0
28/09:30am 5.1 2.2 4.5 96 0.3 WSW 9 11 5 6 1037.5 1037.6 0.0
28/09:19am 4.8 1.8 4.2 96 0.3 WSW 9 13 5 7 1037.5 1037.6 0.0
28/09:17am 4.8 1.8 4.2 96 0.3 WSW 9 13 5 7 1037.5 1037.6 0.0
28/09:00am 4.0 0.5 3.4 96 0.2 WSW 11 17 6 9 1037.5 1037.6 0.2
28/08:35am 2.8 -0.9 2.1 95 0.3 W 11 13 6 7 1037.0 1037.1 0.2
28/08:30am 2.6 -0.8 1.9 95 0.3 W 9 11 5 6 1037.0 1037.1 0.2
28/08:00am 2.1 -1.4 1.4 95 0.3 W 9 11 5 6 1036.8 1036.9 0.2
28/07:30am 2.1 -1.0 1.4 95 0.3 W 7 9 4 5 1036.5 1036.6 0.2
28/07:00am 2.2 -0.9 1.5 95 0.3 W 7 11 4 6 1036.1 1036.2 0.2
28/06:30am 2.5 -0.5 1.8 95 0.3 WSW 7 9 4 5 1035.9 1036.0 0.2
28/06:00am 2.7 -0.7 2.0 95 0.3 WSW 9 13 5 7 1035.5 1035.6 0.2
28/05:30am 3.3 0.0 2.6 95 0.3 WSW 9 13 5 7 1035.3 1035.4 0.2
28/05:00am 3.3 0.0 2.4 94 0.4 WSW 9 13 5 7 1035.2 1035.3 0.2
28/04:30am 3.0 0.0 2.1 94 0.4 WSW 7 11 4 6 1035.0 1035.1 0.2
28/04:08am 2.7 -0.3 1.7 93 0.4 WSW 7 9 4 5 1034.8 1034.9 0.2
28/04:00am 2.3 -0.6 1.3 93 0.4 WSW 6 9 3 5 1034.7 1034.8 0.2
28/03:30am 3.4 -0.7 2.4 93 0.4 WSW 13 15 7 8 1034.5 1034.6 0.2
28/03:00am 3.4 -0.3 2.4 93 0.4 W 11 13 6 7 1034.5 1034.6 0.2
28/02:30am 3.0 -0.4 1.8 92 0.5 W 9 13 5 7 1034.6 1034.7 0.0
28/02:00am 3.4 -0.3 2.1 91 0.5 W 11 15 6 8 1034.5 1034.6 0.0
28/01:30am 4.1 0.1 2.6 90 0.6 W 13 17 7 9 1034.3 1034.4 0.0
28/01:00am 4.9 0.2 3.4 90 0.6 WSW 17 20 9 11 1034.1 1034.2 0.0
28/12:30am 5.0 0.3 3.3 89 0.7 W 17 19 9 10 1034.2 1034.3 0.0
28/12:00am 3.9 0.2 2.3 89 0.6 W 11 15 6 8 1033.9 1034.0 0.0
 
Date/Time
EST
Temp
°C
App
Temp
°C
Dew
Point
Rel
Hum
%
Delta-T
°C
Wind Press
QNH
hPa
Press
MSL
hPa
Rain
since 9 am
mm
Dir
 
Spd
km/h
Gust
km/h
Spd
kts
Gust
kts
27/11:30pm 4.3 1.0 2.3 87 0.8 W 9 11 5 6 1034.0 1034.1 0.0
27/11:00pm 5.0 1.0 2.9 86 0.9 W 13 15 7 8 1034.1 1034.2 0.0
27/10:30pm 5.3 1.0 3.0 85 0.9 W 15 17 8 9 1034.1 1034.2 0.0
27/10:00pm 5.9 2.0 3.6 85 1.0 W 13 15 7 8 1034.2 1034.3 0.0
27/09:30pm 5.3 1.2 2.5 82 1.1 W 13 15 7 8 1034.0 1034.1 0.0
27/09:00pm 6.3 1.6 3.3 81 1.2 W 17 19 9 10 1033.8 1033.9 0.0
27/08:30pm 6.4 2.4 2.7 77 1.5 W 13 17 7 9 1033.7 1033.8 0.0
27/08:00pm 8.6 5.2 4.2 74 1.9 W 11 13 6 7 1033.7 1033.8 0.0
27/07:30pm 8.6 5.2 3.8 72 2.1 W 11 13 6 7 1033.6 1033.7 0.0
27/07:00pm 8.7 4.8 3.3 69 2.3 WSW 13 15 7 8 1033.3 1033.4 0.0
27/06:30pm 10.0 6.1 3.5 64 2.8 WSW 13 15 7 8 1033.0 1033.1 0.0
27/06:00pm 10.8 5.7 3.1 59 3.3 WSW 19 20 10 11 1032.5 1032.7 0.0
27/05:30pm 11.1 6.0 2.9 57 3.6 SW 19 24 10 13 1032.3 1032.5 0.0
27/05:00pm 11.3 5.6 2.9 56 3.6 SW 22 28 12 15 1032.1 1032.3 0.0
27/04:30pm 11.4 5.2 2.4 54 3.9 SW 24 32 13 17 1031.9 1032.1 0.0
27/04:00pm 11.6 4.8 2.9 55 3.8 WSW 28 35 15 19 1031.6 1031.8 0.0
27/03:30pm 11.7 6.0 3.0 55 3.8 WSW 22 33 12 18 1031.6 1031.8 0.0
27/03:00pm 11.6 5.1 2.6 54 3.9 WSW 26 35 14 19 1031.4 1031.6 0.0
27/02:30pm 12.0 6.6 2.5 52 4.1 SW 20 28 11 15 1031.1 1031.3 0.0
27/02:00pm 11.5 5.4 2.5 54 3.9 SW 24 35 13 19 1031.2 1031.4 0.0
27/01:30pm 12.7 7.1 3.6 54 4.1 SW 22 32 12 17 1031.5 1031.7 0.0
27/01:00pm 11.5 5.0 2.8 55 3.8 WSW 26 35 14 19 1031.8 1032.0 0.0
27/12:30pm 11.4 5.7 2.7 55 3.8 SW 22 33 12 18 1032.2 1032.4 0.0
27/12:00pm 11.2 5.3 3.7 60 3.3 WSW 24 35 13 19 1032.5 1032.7 0.0

Other Formats:

Comma delimited format used in spreadsheet applications
http://www.bom.gov.au/fwo/IDN60801/IDN60801.94843.axf

JavaScript Object Notation format (JSON) in row-major order
http://www.bom.gov.au/fwo/IDN60801/IDN60801.94843.json